Time;durP1;ratioP1;P1;durP2;ratioP2;P2;SDS_P1;SDS_P2;PMS_P1;PMS_P2;Temp;Humidity;BMP_temperature;BMP_pressure;BME280_temperature;BME280_humidity;BME280_pressure;Samples;Min_cycle;Max_cycle;Signal;HPM_P1;HPM_P2
2022/06/19 00:01:18;;;;;;;0.80;0.80;;;21.00;63.70;;;;;;5073402;28;20024;-63
2022/06/19 00:03:51;;;;;;;0.70;0.70;;;21.00;64.30;;;;;;5066617;28;20811;-62
2022/06/19 00:06:17;;;;;;;0.75;0.75;;;21.00;63.60;;;;;;5073699;28;20088;-62
2022/06/19 00:08:45;;;;;;;1.17;0.80;;;20.90;63.50;;;;;;5069699;28;20028;-63
2022/06/19 00:11:12;;;;;;;0.60;0.60;;;20.90;63.40;;;;;;5073275;28;20031;-62
2022/06/19 00:13:38;;;;;;;1.88;0.93;;;20.90;63.20;;;;;;5073398;28;20032;-62
2022/06/19 00:16:04;;;;;;;0.80;0.70;;;20.90;63.60;;;;;;5071799;28;20119;-63
2022/06/19 00:18:30;;;;;;;0.93;0.77;;;20.90;63.60;;;;;;5074341;28;20040;-62
2022/06/19 00:20:57;;;;;;;0.80;0.80;;;20.90;63.80;;;;;;5073016;28;20040;-62
2022/06/19 00:23:23;;;;;;;0.80;0.70;;;20.90;63.90;;;;;;5072210;28;20044;-63
2022/06/19 00:25:49;;;;;;;0.65;0.65;;;20.90;63.90;;;;;;5073606;28;20031;-63
2022/06/19 00:28:15;;;;;;;1.15;0.70;;;20.80;63.70;;;;;;5071203;28;20119;-63
2022/06/19 00:30:41;;;;;;;0.60;0.60;;;20.80;63.40;;;;;;5075094;28;20028;-62
2022/06/19 00:33:07;;;;;;;0.70;0.70;;;20.80;63.30;;;;;;5075808;28;20022;-63
2022/06/19 00:35:34;;;;;;;0.75;0.70;;;20.80;63.90;;;;;;5082396;28;20042;-63
2022/06/19 00:38:00;;;;;;;0.50;0.50;;;20.80;63.20;;;;;;5081934;28;20028;-63
2022/06/19 00:40:27;;;;;;;0.80;0.80;;;20.80;63.20;;;;;;5082593;28;20035;-63
2022/06/19 00:42:53;;;;;;;0.63;0.57;;;20.80;63.00;;;;;;5082240;28;20052;-63
2022/06/19 00:45:40;;;;;;;0.80;0.70;;;20.70;63.20;;;;;;5082522;28;20049;-63
2022/06/19 00:48:20;;;;;;;0.60;0.60;;;20.70;63.00;;;;;;5082418;28;20029;-63
2022/06/19 00:50:47;;;;;;;0.50;0.50;;;20.70;62.80;;;;;;5079972;28;20025;-62
2022/06/19 00:53:14;;;;;;;;;;;20.70;63.00;;;;;;5081260;28;20098;-61
2022/06/19 00:55:42;;;;;;;0.63;0.60;;;20.70;63.50;;;;;;5081643;28;19995;-61
2022/06/19 00:58:24;;;;;;;0.90;0.73;;;20.60;63.10;;;;;;5082318;28;20087;-63
2022/06/19 01:00:58;;;;;;;0.75;0.70;;;20.60;63.10;;;;;;5078455;28;20029;-63
2022/06/19 01:03:33;;;;;;;0.98;0.60;;;20.60;63.20;;;;;;5057142;28;20044;-62
2022/06/19 01:05:59;;;;;;;0.65;0.65;;;20.60;63.00;;;;;;5068183;28;20028;-63
2022/06/19 01:08:25;;;;;;;0.75;0.57;;;20.60;62.80;;;;;;5054964;28;20496;-63
2022/06/19 01:10:51;;;;;;;0.70;0.70;;;20.60;62.80;;;;;;5071292;28;20071;-63
2022/06/19 01:13:19;;;;;;;0.52;0.52;;;20.50;62.70;;;;;;5074486;28;20033;-64
2022/06/19 01:15:45;;;;;;;0.43;0.43;;;20.50;62.60;;;;;;5065786;28;20060;-63
2022/06/19 01:18:12;;;;;;;0.50;0.50;;;20.50;62.70;;;;;;5077298;28;20032;-64
2022/06/19 01:20:38;;;;;;;0.60;0.60;;;20.50;62.60;;;;;;5070034;28;20032;-64
2022/06/19 01:23:19;;;;;;;0.47;0.47;;;20.40;62.40;;;;;;5075972;28;20060;-64
2022/06/19 01:25:45;;;;;;;0.60;0.60;;;20.40;62.40;;;;;;5069393;28;20284;-63
2022/06/19 01:30:58;;;;;;;0.60;0.60;;;20.40;62.60;;;;;;5065692;28;20044;-64
2022/06/19 01:33:31;;;;;;;0.52;0.52;;;20.40;62.60;;;;;;5078392;28;20052;-64
2022/06/19 01:35:57;;;;;;;0.50;0.50;;;20.40;62.60;;;;;;5084932;28;20021;-63
2022/06/19 01:38:24;;;;;;;0.52;0.52;;;20.30;62.50;;;;;;5083863;28;20028;-64
2022/06/19 01:41:12;;;;;;;1.02;0.80;;;20.30;62.40;;;;;;5067615;28;20020;-63
2022/06/19 01:43:38;;;;;;;0.60;0.60;;;20.30;62.30;;;;;;5084628;28;20043;-64
2022/06/19 01:46:04;;;;;;;0.80;0.70;;;20.30;62.30;;;;;;5084770;28;20644;-64
2022/06/19 01:48:31;;;;;;;0.80;0.80;;;20.30;62.10;;;;;;5085990;28;20032;-64
2022/06/19 01:50:57;;;;;;;0.70;0.60;;;20.20;62.10;;;;;;5084059;28;20036;-62
2022/06/19 01:53:28;;;;;;;0.70;0.70;;;20.20;62.10;;;;;;5084075;28;20117;-64
2022/06/19 01:55:54;;;;;;;0.77;0.77;;;20.20;62.00;;;;;;5083972;28;20273;-64
2022/06/19 01:58:21;;;;;;;0.70;0.70;;;20.20;61.90;;;;;;5084967;28;20028;-64
2022/06/19 02:00:48;;;;;;;0.80;0.70;;;20.20;61.90;;;;;;5063274;28;20056;-64
2022/06/19 02:03:28;;;;;;;;;;;20.10;62.00;;;;;;5069339;28;20528;-64
2022/06/19 02:05:54;;;;;;;0.80;0.80;;;20.10;62.20;;;;;;5071402;28;19908;-64
2022/06/19 02:08:20;;;;;;;0.70;0.70;;;20.10;62.20;;;;;;5077160;28;20050;-64
2022/06/19 02:10:46;;;;;;;0.70;0.70;;;20.10;62.10;;;;;;5077126;28;20029;-63
2022/06/19 02:13:14;;;;;;;0.70;0.70;;;20.00;61.90;;;;;;5070066;28;20086;-65
2022/06/19 02:15:40;;;;;;;0.60;0.57;;;20.00;61.90;;;;;;5073719;28;20177;-65
2022/06/19 02:18:08;;;;;;;0.60;0.60;;;20.00;61.90;;;;;;5075670;28;20047;-64
2022/06/19 02:20:34;;;;;;;0.88;0.77;;;20.00;61.80;;;;;;5074460;28;20029;-64
2022/06/19 02:23:01;;;;;;;0.70;0.70;;;20.00;61.60;;;;;;5072226;28;20049;-65
2022/06/19 02:25:27;;;;;;;1.65;0.60;;;19.90;61.50;;;;;;5071738;28;20040;-65
2022/06/19 02:27:53;;;;;;;1.33;0.60;;;19.90;61.50;;;;;;5072118;28;20037;-65
2022/06/19 02:30:19;;;;;;;0.73;0.50;;;19.90;61.60;;;;;;5073013;28;20025;-65
2022/06/19 02:32:49;;;;;;;0.60;0.60;;;19.90;61.50;;;;;;5074613;28;20123;-65
2022/06/19 02:35:20;;;;;;;0.80;0.60;;;19.90;61.30;;;;;;5084818;28;20039;-65
2022/06/19 02:37:54;;;;;;;0.57;0.57;;;19.80;61.30;;;;;;5083898;28;20020;-64
2022/06/19 02:40:23;;;;;;;1.02;0.60;;;19.80;61.50;;;;;;5084358;28;20074;-65
2022/06/19 02:42:50;;;;;;;0.60;0.60;;;19.80;61.50;;;;;;5082966;28;20060;-65
2022/06/19 02:45:17;;;;;;;0.57;0.57;;;19.80;61.40;;;;;;5084433;28;20021;-65
2022/06/19 02:47:44;;;;;;;0.60;0.60;;;19.70;61.30;;;;;;5084354;28;20119;-65
2022/06/19 02:50:13;;;;;;;1.20;0.60;;;19.70;61.20;;;;;;5084516;28;20032;-64
2022/06/19 02:52:39;;;;;;;1.75;0.70;;;19.70;61.10;;;;;;5084158;28;20040;-65
2022/06/19 02:55:06;;;;;;;0.60;0.60;;;19.70;60.90;;;;;;5084144;28;20024;-64
2022/06/19 02:57:32;;;;;;;0.55;0.55;;;19.60;60.90;;;;;;5072581;28;20114;-65
2022/06/19 02:59:58;;;;;;;0.60;0.60;;;19.60;60.70;;;;;;5064240;28;20021;-65
2022/06/19 03:02:26;;;;;;;0.60;0.60;;;19.60;60.60;;;;;;5072467;28;20078;-64
2022/06/19 03:04:56;;;;;;;0.70;0.60;;;19.60;60.60;;;;;;5076032;28;20485;-65
2022/06/19 03:07:23;;;;;;;0.70;0.70;;;19.60;60.40;;;;;;5072580;28;20046;-64
2022/06/19 03:09:49;;;;;;;0.70;0.70;;;19.50;60.20;;;;;;5074263;28;20084;-65
2022/06/19 03:12:17;;;;;;;1.95;0.60;;;19.50;60.30;;;;;;5076169;28;20040;-65
2022/06/19 03:14:44;;;;;;;0.98;0.60;;;19.50;60.30;;;;;;5071925;28;20068;-65
2022/06/19 03:17:14;;;;;;;;;;;19.50;60.20;;;;;;5076356;28;20043;-64
2022/06/19 03:19:40;;;;;;;0.43;0.43;;;19.50;60.20;;;;;;5074438;28;19912;-64
2022/06/19 03:22:07;;;;;;;0.60;0.60;;;19.40;60.20;;;;;;5073135;28;20489;-63
2022/06/19 03:24:33;;;;;;;0.82;0.60;;;19.40;60.20;;;;;;5075131;28;20055;-64
2022/06/19 03:26:59;;;;;;;0.45;0.45;;;19.30;60.00;;;;;;5074037;28;20028;-64
2022/06/19 03:29:25;;;;;;;0.50;0.50;;;19.30;60.00;;;;;;5075577;28;20032;-65
2022/06/19 03:31:51;;;;;;;0.63;0.50;;;19.30;59.90;;;;;;5074165;28;20066;-64
2022/06/19 03:34:17;;;;;;;0.70;0.55;;;19.30;59.90;;;;;;5080408;28;20036;-64
2022/06/19 03:36:43;;;;;;;0.75;0.50;;;19.20;59.80;;;;;;5071323;28;20647;-64
2022/06/19 03:39:09;;;;;;;0.43;0.43;;;19.30;59.80;;;;;;5083007;28;20115;-64
2022/06/19 03:41:37;;;;;;;0.68;0.50;;;19.20;59.70;;;;;;5083235;28;20127;-64
2022/06/19 03:44:04;;;;;;;0.50;0.47;;;19.20;59.70;;;;;;5083266;28;20033;-64
2022/06/19 03:46:30;;;;;;;0.50;0.50;;;19.20;59.70;;;;;;5083493;28;20035;-64
2022/06/19 03:48:56;;;;;;;0.52;0.50;;;19.10;59.70;;;;;;5082861;28;20281;-64
2022/06/19 03:51:23;;;;;;;0.45;0.45;;;19.10;59.70;;;;;;5083088;28;20051;-64
2022/06/19 03:53:53;;;;;;;0.60;0.60;;;19.10;59.70;;;;;;5083170;28;20025;-64
2022/06/19 03:56:24;;;;;;;0.60;0.60;;;19.10;59.70;;;;;;5073284;28;20052;-64
2022/06/19 03:58:51;;;;;;;0.55;0.55;;;19.10;59.70;;;;;;5062844;28;20374;-65
2022/06/19 04:01:24;;;;;;;0.73;0.40;;;19.00;59.60;;;;;;5063653;28;20191;-63
2022/06/19 04:03:51;;;;;;;0.40;0.40;;;19.00;59.60;;;;;;5074029;28;20036;-64
2022/06/19 04:06:18;;;;;;;0.40;0.40;;;19.00;59.50;;;;;;5070503;28;20047;-64
2022/06/19 04:08:46;;;;;;;0.57;0.57;;;18.90;59.40;;;;;;5082841;28;20033;-64
2022/06/19 04:11:15;;;;;;;0.60;0.60;;;18.90;59.40;;;;;;5075748;28;20029;-64
2022/06/19 04:13:42;;;;;;;0.57;0.52;;;18.90;59.40;;;;;;5062959;28;20029;-64
2022/06/19 04:16:09;;;;;;;0.60;0.60;;;18.90;59.40;;;;;;5062927;28;20111;-64
2022/06/19 04:18:35;;;;;;;0.50;0.50;;;18.90;59.40;;;;;;5061624;28;20512;-64
2022/06/19 04:21:03;;;;;;;0.43;0.43;;;18.80;59.30;;;;;;5062692;28;20025;-64
2022/06/19 04:23:28;;;;;;;;;;;18.80;59.30;;;;;;5063102;28;20036;-64
2022/06/19 04:25:55;;;;;;;0.57;0.50;;;18.70;59.30;;;;;;5062346;28;19911;-64
2022/06/19 04:28:24;;;;;;;0.60;0.60;;;18.80;59.40;;;;;;5062858;28;20104;-64
2022/06/19 04:30:53;;;;;;;0.55;0.55;;;18.70;59.40;;;;;;5077359;28;20035;-64
2022/06/19 04:33:20;;;;;;;0.40;0.40;;;18.70;59.40;;;;;;5081663;28;20092;-64
2022/06/19 04:35:47;;;;;;;0.50;0.50;;;18.70;59.30;;;;;;5082627;28;20050;-65
2022/06/19 04:38:13;;;;;;;0.60;0.50;;;18.70;59.30;;;;;;5082353;28;20035;-64
2022/06/19 04:40:39;;;;;;;0.30;0.30;;;18.60;59.30;;;;;;5082433;28;20032;-63
2022/06/19 04:43:06;;;;;;;0.43;0.40;;;18.60;59.20;;;;;;5082532;28;20037;-64
2022/06/19 04:45:32;;;;;;;0.35;0.35;;;18.60;59.20;;;;;;5082829;28;20028;-64
2022/06/19 04:47:58;;;;;;;0.47;0.47;;;18.60;59.20;;;;;;5082716;28;20568;-64
2022/06/19 04:50:24;;;;;;;0.40;0.40;;;18.50;59.20;;;;;;5079301;28;20269;-63
2022/06/19 04:52:50;;;;;;;0.40;0.40;;;18.50;59.20;;;;;;5082491;28;20043;-64
2022/06/19 04:55:17;;;;;;;0.50;0.50;;;18.50;59.20;;;;;;5082408;28;20035;-64
2022/06/19 04:57:43;;;;;;;0.75;0.45;;;18.50;59.20;;;;;;5082208;28;20028;-64
2022/06/19 05:00:12;;;;;;;0.73;0.60;;;18.40;59.20;;;;;;5083104;28;20044;-64
2022/06/19 05:02:38;;;;;;;0.50;0.40;;;18.40;59.20;;;;;;5074228;28;20089;-64
2022/06/19 05:05:05;;;;;;;0.80;0.53;;;18.40;59.20;;;;;;5082473;28;20016;-64
2022/06/19 05:07:32;;;;;;;0.70;0.60;;;18.40;59.30;;;;;;5082331;28;20341;-64
2022/06/19 05:09:59;;;;;;;0.50;0.50;;;18.30;59.20;;;;;;5085283;28;20060;-64
2022/06/19 05:12:25;;;;;;;0.73;0.60;;;18.30;59.20;;;;;;5085897;28;20028;-64
2022/06/19 05:14:53;;;;;;;1.20;0.68;;;18.30;59.20;;;;;;5086184;28;20101;-63
2022/06/19 05:17:20;;;;;;;0.77;0.77;;;18.20;59.10;;;;;;5086457;28;20075;-64
2022/06/19 05:19:46;;;;;;;0.47;0.47;;;18.20;59.10;;;;;;5086224;28;20020;-64
2022/06/19 05:22:12;;;;;;;0.65;0.60;;;18.20;59.10;;;;;;5085668;28;20048;-64
2022/06/19 05:24:38;;;;;;;0.60;0.60;;;18.20;59.10;;;;;;5085607;28;20032;-64
2022/06/19 05:27:10;;;;;;;0.80;0.60;;;18.20;59.10;;;;;;5085940;28;20059;-64
2022/06/19 05:29:37;;;;;;;0.50;0.50;;;18.10;59.10;;;;;;5085896;28;20504;-64
2022/06/19 05:32:04;;;;;;;0.70;0.70;;;18.10;59.10;;;;;;5071550;28;20029;-64
2022/06/19 05:34:34;;;;;;;0.73;0.70;;;18.10;59.10;;;;;;5081941;28;20029;-63
2022/06/19 05:37:00;;;;;;;0.60;0.60;;;18.00;59.10;;;;;;5073801;28;20044;-63
2022/06/19 05:39:26;;;;;;;0.73;0.73;;;18.00;59.10;;;;;;5085578;28;20032;-63
2022/06/19 05:41:54;;;;;;;1.25;0.80;;;18.00;59.10;;;;;;5084726;28;20044;-64
2022/06/19 05:44:20;;;;;;;0.50;0.50;;;18.00;59.20;;;;;;5085649;28;20035;-63
2022/06/19 05:46:49;;;;;;;0.70;0.60;;;18.00;59.70;;;;;;5085497;28;20024;-63
2022/06/19 05:49:15;;;;;;;0.60;0.60;;;17.90;59.20;;;;;;5085788;28;20016;-63
2022/06/19 05:51:41;;;;;;;1.25;0.88;;;17.90;59.20;;;;;;5085237;28;20032;-63
2022/06/19 05:54:08;;;;;;;0.63;0.63;;;17.90;59.20;;;;;;5085036;28;20494;-64
2022/06/19 05:56:34;;;;;;;0.70;0.60;;;17.90;59.30;;;;;;5085411;28;20021;-64
2022/06/19 05:59:00;;;;;;;0.88;0.80;;;17.90;59.20;;;;;;5085192;28;20392;-64
2022/06/19 06:01:28;;;;;;;0.77;0.50;;;17.90;59.20;;;;;;5081780;28;20032;-64
2022/06/19 06:03:55;;;;;;;0.63;0.60;;;17.90;59.30;;;;;;5084528;28;20032;-63
2022/06/19 06:06:23;;;;;;;1.30;0.77;;;17.90;59.30;;;;;;5084931;28;20024;-64
2022/06/19 06:08:49;;;;;;;0.93;0.70;;;17.90;59.30;;;;;;5083787;28;20269;-63
2022/06/19 06:11:15;;;;;;;0.57;0.57;;;17.90;59.30;;;;;;5083474;28;20079;-64
2022/06/19 06:13:41;;;;;;;0.70;0.70;;;17.90;59.30;;;;;;5084794;28;20063;-64
2022/06/19 06:16:13;;;;;;;1.33;0.77;;;17.90;59.30;;;;;;5085023;28;20036;-64
2022/06/19 06:18:39;;;;;;;0.60;0.60;;;17.90;59.40;;;;;;5084953;28;20028;-64
2022/06/19 06:21:08;;;;;;;0.80;0.80;;;17.90;59.30;;;;;;5084324;28;20033;-64
2022/06/19 06:23:34;;;;;;;0.77;0.77;;;17.90;59.30;;;;;;5084290;28;20040;-64
2022/06/19 06:26:08;;;;;;;1.13;0.88;;;17.90;59.30;;;;;;5084789;28;20036;-63
2022/06/19 06:28:35;;;;;;;0.77;0.73;;;17.90;59.20;;;;;;5084672;28;20127;-64
2022/06/19 06:31:01;;;;;;;;;;;17.90;59.20;;;;;;5079043;28;20013;-63
2022/06/19 06:33:27;;;;;;;0.80;0.73;;;18.00;59.30;;;;;;5072266;28;19933;-63
2022/06/19 06:35:54;;;;;;;0.98;0.60;;;17.90;59.30;;;;;;5073270;28;20036;-64
2022/06/19 06:38:20;;;;;;;0.67;0.60;;;18.00;59.20;;;;;;5083623;28;20020;-64
2022/06/19 06:40:46;;;;;;;0.60;0.60;;;18.00;59.30;;;;;;5081545;28;20074;-65
2022/06/19 06:43:13;;;;;;;0.80;0.80;;;18.00;59.20;;;;;;5084067;28;20520;-64
2022/06/19 06:45:39;;;;;;;0.88;0.70;;;18.00;59.20;;;;;;5084296;28;20029;-64
2022/06/19 06:48:05;;;;;;;0.70;0.70;;;18.00;59.20;;;;;;5084468;28;20039;-64
2022/06/19 06:50:31;;;;;;;0.70;0.70;;;18.00;59.20;;;;;;5084251;28;20028;-64
2022/06/19 06:52:58;;;;;;;0.52;0.52;;;18.00;59.20;;;;;;5083860;28;20047;-64
2022/06/19 06:55:24;;;;;;;0.63;0.60;;;18.00;59.90;;;;;;5082547;28;20028;-64
2022/06/19 06:57:50;;;;;;;0.73;0.60;;;18.10;59.40;;;;;;5084163;28;20107;-64
2022/06/19 07:00:21;;;;;;;0.70;0.70;;;18.10;59.40;;;;;;5084195;28;20025;-64
2022/06/19 07:02:47;;;;;;;0.50;0.50;;;18.10;59.30;;;;;;5072920;28;20120;-64
2022/06/19 07:05:13;;;;;;;0.70;0.70;;;18.10;59.30;;;;;;5083883;28;20031;-64
2022/06/19 07:07:39;;;;;;;0.57;0.57;;;18.10;59.30;;;;;;5083888;28;20081;-64
2022/06/19 07:10:06;;;;;;;1.00;0.60;;;18.10;59.40;;;;;;5083560;28;20028;-63
2022/06/19 07:12:33;;;;;;;0.80;0.80;;;18.10;59.30;;;;;;5081955;28;20035;-64
2022/06/19 07:14:59;;;;;;;0.70;0.70;;;18.10;59.30;;;;;;5083524;28;20105;-65
2022/06/19 07:17:25;;;;;;;0.60;0.60;;;18.20;59.40;;;;;;5083395;28;20028;-64
2022/06/19 07:19:51;;;;;;;0.80;0.70;;;18.20;59.30;;;;;;5083713;28;20084;-65
2022/06/19 07:22:17;;;;;;;0.70;0.63;;;18.20;59.20;;;;;;5083322;28;20560;-64
2022/06/19 07:24:44;;;;;;;0.77;0.75;;;18.20;59.20;;;;;;5083161;28;20033;-65
2022/06/19 07:27:10;;;;;;;1.30;0.70;;;18.20;59.30;;;;;;5083541;28;20020;-64
2022/06/19 07:29:45;;;;;;;1.00;0.70;;;18.20;59.30;;;;;;5083616;28;20035;-64
2022/06/19 07:32:12;;;;;;;0.82;0.82;;;18.20;59.30;;;;;;5067225;28;20111;-65
2022/06/19 07:34:39;;;;;;;0.60;0.60;;;18.30;59.30;;;;;;5079812;28;20021;-64
2022/06/19 07:37:06;;;;;;;1.63;1.00;;;18.30;59.30;;;;;;5072134;28;20041;-64
2022/06/19 07:39:33;;;;;;;0.70;0.70;;;18.30;59.30;;;;;;5083258;28;20021;-64
2022/06/19 07:42:00;;;;;;;0.57;0.57;;;18.30;59.30;;;;;;5082899;28;20052;-64
2022/06/19 07:44:26;;;;;;;1.13;0.65;;;18.30;59.30;;;;;;5082902;28;20190;-65
2022/06/19 07:52:21;;;;;;;0.63;0.60;;;18.30;59.20;;;;;;5083070;28;20036;-64
2022/06/19 07:54:48;;;;;;;0.93;0.70;;;18.30;59.20;;;;;;5082714;28;20092;-64
2022/06/19 07:57:14;;;;;;;0.90;0.80;;;18.40;59.30;;;;;;5082905;28;20097;-65
2022/06/19 07:59:40;;;;;;;0.90;0.70;;;18.40;59.30;;;;;;5083017;28;20288;-65
2022/06/19 08:02:06;;;;;;;0.63;0.63;;;18.40;59.30;;;;;;5068128;28;20059;-65
2022/06/19 08:04:32;;;;;;;0.90;0.65;;;18.40;59.30;;;;;;5079158;28;20045;-64
2022/06/19 08:06:58;;;;;;;0.70;0.70;;;18.40;59.30;;;;;;5082693;28;20024;-65
2022/06/19 08:09:24;;;;;;;0.80;0.70;;;18.40;59.30;;;;;;5082571;28;20032;-65
2022/06/19 08:11:50;;;;;;;1.50;0.70;;;18.40;59.30;;;;;;5079231;28;20046;-65
2022/06/19 08:14:16;;;;;;;1.13;0.80;;;18.40;59.30;;;;;;5082346;28;20052;-65
2022/06/19 08:16:42;;;;;;;1.05;0.70;;;18.40;59.30;;;;;;5083011;28;20060;-64
2022/06/19 08:19:09;;;;;;;0.95;0.85;;;18.40;59.30;;;;;;5083710;28;20048;-65
2022/06/19 08:21:35;;;;;;;0.65;0.60;;;18.50;59.30;;;;;;5083134;28;20092;-64
2022/06/19 08:24:01;;;;;;;0.70;0.70;;;18.50;59.30;;;;;;5082172;28;20033;-64
2022/06/19 08:26:27;;;;;;;0.73;0.70;;;18.40;59.30;;;;;;5082220;28;20031;-64
2022/06/19 08:29:02;;;;;;;0.70;0.70;;;18.50;59.30;;;;;;5082513;28;20033;-64
2022/06/19 08:31:29;;;;;;;0.70;0.70;;;18.50;59.30;;;;;;5073177;28;20025;-65
2022/06/19 08:33:55;;;;;;;0.68;0.68;;;18.50;59.30;;;;;;5073989;28;20028;-65
2022/06/19 08:36:21;;;;;;;0.70;0.60;;;18.50;59.30;;;;;;5069723;28;20032;-65
2022/06/19 08:38:49;;;;;;;1.75;0.70;;;18.50;59.40;;;;;;5082486;28;20045;-65
2022/06/19 08:41:28;;;;;;;0.90;0.70;;;18.50;59.40;;;;;;5081009;28;20178;-64
2022/06/19 08:44:32;;;;;;;0.88;0.70;;;18.50;59.40;;;;;;5080782;28;20041;-65
2022/06/19 08:47:32;;;;;;;0.80;0.80;;;18.50;59.40;;;;;;5079732;28;20028;-65
2022/06/19 08:50:10;;;;;;;0.80;0.60;;;18.50;59.40;;;;;;5081545;28;20568;-65
2022/06/19 08:52:59;;;;;;;1.05;0.80;;;18.50;59.40;;;;;;5082447;28;20017;-64
2022/06/19 08:55:31;;;;;;;0.90;0.77;;;18.50;59.40;;;;;;5080394;28;20091;-64
2022/06/19 08:58:01;;;;;;;0.70;0.70;;;18.50;59.40;;;;;;5082123;28;20040;-65
2022/06/19 09:00:36;;;;;;;1.17;0.85;;;18.50;59.40;;;;;;5081270;28;20035;-64
2022/06/19 09:07:23;;;;;;;1.07;0.90;;;18.60;59.40;;;;;;5068353;28;20131;-65
2022/06/19 09:10:12;;;;;;;0.60;0.60;;;18.50;59.40;;;;;;4987213;28;20310;-65
2022/06/19 09:13:10;;;;;;;0.77;0.70;;;18.60;59.40;;;;;;4985057;28;20077;-64
2022/06/19 09:15:42;;;;;;;0.70;0.70;;;18.60;59.50;;;;;;4996217;28;20557;-64
2022/06/19 09:18:39;;;;;;;0.88;0.60;;;18.50;59.40;;;;;;4983611;28;20053;-65
2022/06/19 09:21:23;;;;;;;0.80;0.80;;;18.60;59.50;;;;;;4999806;28;20026;-65
2022/06/19 09:24:02;;;;;;;0.70;0.70;;;18.60;59.50;;;;;;4999618;28;20046;-62
2022/06/19 09:26:31;;;;;;;0.70;0.60;;;18.60;59.50;;;;;;4999631;28;20054;-65
2022/06/19 09:29:49;;;;;;;0.77;0.73;;;18.60;59.50;;;;;;4999840;28;20026;-65
2022/06/19 09:32:41;;;;;;;0.70;0.60;;;18.60;59.50;;;;;;4945256;29;20055;-64
2022/06/19 09:35:09;;;;;;;0.60;0.60;;;18.60;59.50;;;;;;4903706;29;20033;-65
2022/06/19 09:37:43;;;;;;;0.80;0.80;;;18.60;59.50;;;;;;4903717;29;20040;-64
2022/06/19 09:40:21;;;;;;;1.05;0.80;;;18.60;59.50;;;;;;4888126;29;20041;-66
2022/06/19 09:43:08;;;;;;;0.75;0.70;;;18.60;59.50;;;;;;4888489;29;20099;-65
2022/06/19 09:45:44;;;;;;;0.90;0.80;;;18.60;59.50;;;;;;4945356;28;20042;-65
2022/06/19 09:48:58;;;;;;;0.88;0.70;;;18.60;59.50;;;;;;4963884;28;20034;-65
2022/06/19 09:51:38;;;;;;;0.65;0.60;;;18.60;59.50;;;;;;4971776;28;20039;-65
2022/06/19 09:54:16;;;;;;;0.65;0.65;;;18.60;59.50;;;;;;4964607;28;20055;-66
2022/06/19 09:57:01;;;;;;;1.00;0.70;;;18.60;59.50;;;;;;4982285;28;20038;-65
2022/06/19 09:59:36;;;;;;;1.25;0.90;;;18.60;59.50;;;;;;4983415;28;20063;-65
2022/06/19 10:02:07;;;;;;;0.90;0.70;;;18.60;59.50;;;;;;4967773;28;20043;-64
2022/06/19 10:04:45;;;;;;;0.70;0.70;;;18.60;59.50;;;;;;4967550;28;20405;-65
2022/06/19 10:07:32;;;;;;;1.13;0.73;;;18.60;59.60;;;;;;4991067;28;20070;-65
2022/06/19 10:10:21;;;;;;;0.88;0.68;;;18.60;59.50;;;;;;5005797;28;20034;-66
2022/06/19 10:12:47;;;;;;;;;;;18.60;59.40;;;;;;5054235;28;20032;-64
2022/06/19 10:15:20;;;;;;;0.70;0.60;;;18.70;59.50;;;;;;5063733;28;19911;-64
2022/06/19 10:18:02;;;;;;;1.75;0.55;;;18.60;59.40;;;;;;5071325;28;20020;-64
2022/06/19 10:20:53;;;;;;;0.80;0.80;;;18.60;59.50;;;;;;5083425;28;20050;-64
2022/06/19 10:23:50;;;;;;;0.88;0.80;;;18.60;59.40;;;;;;5068864;28;20100;-65
2022/06/19 10:26:19;;;;;;;0.85;0.70;;;18.70;59.50;;;;;;5081667;28;20090;-65
2022/06/19 10:29:08;;;;;;;0.70;0.70;;;18.60;59.40;;;;;;5084415;28;20051;-64
2022/06/19 10:31:54;;;;;;;0.75;0.75;;;18.70;59.50;;;;;;5072964;28;20021;-64
2022/06/19 10:34:47;;;;;;;0.90;0.68;;;18.60;59.40;;;;;;5068719;28;20061;-64
2022/06/19 10:37:14;;;;;;;0.60;0.60;;;18.60;59.50;;;;;;5074203;28;20024;-64
2022/06/19 10:39:44;;;;;;;0.70;0.70;;;18.70;59.50;;;;;;5084239;28;20024;-65
2022/06/19 10:42:16;;;;;;;0.60;0.60;;;18.60;59.40;;;;;;5082948;28;20052;-65
2022/06/19 10:45:07;;;;;;;0.60;0.60;;;18.60;59.50;;;;;;5084533;28;20029;-64
2022/06/19 10:48:01;;;;;;;0.60;0.50;;;18.70;59.50;;;;;;5069726;28;20032;-64
2022/06/19 10:50:43;;;;;;;0.68;0.63;;;18.70;59.60;;;;;;5064149;28;20029;-64
2022/06/19 10:54:05;;;;;;;0.70;0.70;;;18.70;59.60;;;;;;5064346;28;20040;-64
2022/06/19 10:56:40;;;;;;;0.57;0.57;;;18.70;59.50;;;;;;5041300;28;20204;-65
2022/06/19 10:59:06;;;;;;;1.58;0.75;;;18.70;59.60;;;;;;5041538;28;20038;-64
2022/06/19 11:04:29;;;;;;;0.65;0.65;;;18.70;59.60;;;;;;5021882;28;20032;-68
2022/06/19 11:06:56;;;;;;;0.80;0.60;;;18.70;59.70;;;;;;5020506;28;20069;-64
2022/06/19 11:09:44;;;;;;;1.48;0.70;;;18.70;59.70;;;;;;5021154;28;20072;-64
2022/06/19 11:12:17;;;;;;;0.85;0.68;;;18.70;59.70;;;;;;5021178;28;20034;-64
2022/06/19 11:14:47;;;;;;;0.80;0.63;;;18.70;59.70;;;;;;5020945;28;20073;-64
2022/06/19 11:17:15;;;;;;;0.60;0.60;;;18.70;59.70;;;;;;5004635;28;20032;-64
2022/06/19 11:19:48;;;;;;;0.50;0.50;;;18.70;59.70;;;;;;5020989;28;20034;-65
2022/06/19 11:22:37;;;;;;;0.68;0.68;;;18.70;59.70;;;;;;5020986;28;20052;-64
2022/06/19 11:25:19;;;;;;;0.60;0.60;;;18.70;59.70;;;;;;5004680;28;20030;-63
2022/06/19 11:28:00;;;;;;;0.60;0.60;;;18.70;59.70;;;;;;5071804;28;20033;-64
2022/06/19 11:30:35;;;;;;;0.70;0.70;;;18.70;59.80;;;;;;5066426;28;20024;-64
2022/06/19 11:33:04;;;;;;;0.50;0.50;;;18.70;59.70;;;;;;5065931;28;20021;-64
2022/06/19 11:35:41;;;;;;;0.70;0.60;;;18.70;59.70;;;;;;5083551;28;20092;-64
2022/06/19 11:38:07;;;;;;;0.80;0.60;;;18.70;59.80;;;;;;5082801;28;20111;-65
2022/06/19 11:40:36;;;;;;;0.60;0.60;;;18.70;59.80;;;;;;5065806;28;20039;-64
2022/06/19 11:43:04;;;;;;;0.60;0.60;;;18.70;59.90;;;;;;5082803;28;20066;-64
2022/06/19 11:45:36;;;;;;;0.60;0.60;;;18.70;59.80;;;;;;5083254;28;20023;-64
2022/06/19 11:48:13;;;;;;;0.80;0.75;;;18.70;59.90;;;;;;5081168;28;20033;-64
2022/06/19 11:50:50;;;;;;;0.60;0.60;;;18.70;59.90;;;;;;5081678;28;20028;-64
2022/06/19 11:53:30;;;;;;;0.60;0.50;;;18.70;59.90;;;;;;5082945;28;20024;-65
2022/06/19 11:56:31;;;;;;;1.15;0.63;;;18.70;59.90;;;;;;5081533;28;20083;-64
2022/06/19 11:58:59;;;;;;;0.60;0.50;;;18.70;59.90;;;;;;5081448;28;20078;-65
2022/06/19 12:01:42;;;;;;;1.08;0.70;;;18.70;59.80;;;;;;5080534;28;20016;-64
2022/06/19 12:04:38;;;;;;;0.40;0.40;;;18.70;59.80;;;;;;5081483;28;20078;-64
2022/06/19 12:07:17;;;;;;;0.57;0.55;;;18.70;60.00;;;;;;5072422;28;20671;-64
2022/06/19 12:09:52;;;;;;;0.80;0.80;;;18.70;59.90;;;;;;5044493;28;20059;-64
2022/06/19 12:12:20;;;;;;;0.68;0.68;;;18.70;60.00;;;;;;5078701;28;20101;-64
2022/06/19 12:14:59;;;;;;;0.68;0.60;;;18.70;60.00;;;;;;5082781;28;20032;-64
2022/06/19 12:17:32;;;;;;;0.60;0.60;;;18.70;60.00;;;;;;5082198;28;20024;-63
2022/06/19 12:20:07;;;;;;;0.75;0.60;;;18.70;60.10;;;;;;5081779;28;20033;-62
2022/06/19 12:22:45;;;;;;;0.60;0.60;;;18.70;60.00;;;;;;5082786;28;20068;-64
2022/06/19 12:25:11;;;;;;;;;;;18.70;60.00;;;;;;5083011;28;20489;-63
2022/06/19 12:27:41;;;;;;;0.70;0.60;;;18.70;60.00;;;;;;5082646;28;19912;-62
2022/06/19 12:30:13;;;;;;;0.50;0.50;;;18.70;60.20;;;;;;5081940;28;20040;-63
2022/06/19 12:32:43;;;;;;;0.80;0.70;;;18.70;60.20;;;;;;5045482;28;20021;-62
2022/06/19 12:35:33;;;;;;;0.70;0.52;;;18.70;60.30;;;;;;5081331;28;20032;-63
2022/06/19 12:37:59;;;;;;;0.60;0.55;;;18.70;60.40;;;;;;5082334;28;20025;-61
2022/06/19 12:40:27;;;;;;;0.83;0.80;;;18.70;60.40;;;;;;5082182;28;20037;-62
2022/06/19 12:42:59;;;;;;;0.60;0.60;;;18.70;60.50;;;;;;5074060;28;20600;-63
2022/06/19 12:45:47;;;;;;;0.70;0.70;;;18.70;60.50;;;;;;5061216;28;20134;-61
2022/06/19 12:48:34;;;;;;;0.80;0.80;;;18.70;60.60;;;;;;5060768;28;20884;-62
2022/06/19 12:51:12;;;;;;;0.90;0.90;;;18.70;60.70;;;;;;5060841;28;20029;-61
2022/06/19 12:53:41;;;;;;;0.88;0.80;;;18.70;60.70;;;;;;5060824;28;20025;-62
2022/06/19 12:56:07;;;;;;;0.73;0.73;;;18.70;60.70;;;;;;5062146;28;20540;-62
2022/06/19 12:58:48;;;;;;;1.10;0.70;;;18.70;60.70;;;;;;5062170;28;20187;-61
2022/06/19 13:01:38;;;;;;;0.68;0.68;;;18.70;60.80;;;;;;5068862;28;20025;-61
2022/06/19 13:04:10;;;;;;;0.82;0.70;;;18.70;60.90;;;;;;5072633;28;20054;-62
2022/06/19 13:07:07;;;;;;;0.75;0.75;;;18.80;61.10;;;;;;5077002;28;20029;-60
2022/06/19 13:09:42;;;;;;;1.05;0.60;;;18.80;61.10;;;;;;5040652;28;20057;-61
2022/06/19 13:12:31;;;;;;;0.80;0.68;;;18.80;61.20;;;;;;5068354;28;20044;-61
2022/06/19 13:15:26;;;;;;;0.70;0.60;;;18.80;61.30;;;;;;5075228;28;20032;-61
2022/06/19 13:18:01;;;;;;;1.00;0.70;;;18.80;62.10;;;;;;5068455;28;20054;-62
2022/06/19 13:20:53;;;;;;;1.05;0.70;;;18.80;61.50;;;;;;5056197;28;20025;-60
2022/06/19 13:23:32;;;;;;;1.10;0.85;;;18.80;61.60;;;;;;5068302;28;20032;-61
2022/06/19 13:27:10;;;;;;;0.60;0.60;;;18.80;61.70;;;;;;5067722;28;20040;-61